TimeEST,TemperatureF,Dew PointF,Humidity,Sea Level PressureIn,VisibilityMPH,Wind Direction,Wind SpeedMPH,Gust SpeedMPH,PrecipitationIn,Events,Conditions,WindDirDegrees,DateUTC
12:14 AM,32.9,30.0,89,29.97,5.0,SSW,8.1,-,N/A,Snow,Light Snow,210,2013-01-06 05:14:00
12:35 AM,33.4,30.2,88,29.96,7.0,SW,9.2,17.3,N/A,,Overcast,220,2013-01-06 05:35:00
12:54 AM,33.6,30.0,87,29.95,5.0,SSW,12.7,18.4,N/A,Rain,Light Rain,210,2013-01-06 05:54:00
1:14 AM,33.8,30.0,86,29.95,7.0,SSW,12.7,19.6,N/A,,Overcast,210,2013-01-06 06:14:00
1:35 AM,34.0,29.5,84,29.93,7.0,SSW,9.2,-,N/A,,Overcast,210,2013-01-06 06:35:00
1:54 AM,34.0,29.1,82,29.93,10.0,SSW,12.7,-,N/A,,Overcast,210,2013-01-06 06:54:00
2:14 AM,34.3,28.9,81,29.93,10.0,SW,10.4,16.1,N/A,,Overcast,220,2013-01-06 07:14:00
2:35 AM,34.7,28.4,78,29.92,10.0,SW,11.5,-,N/A,,Overcast,220,2013-01-06 07:35:00
2:54 AM,34.5,28.4,78,29.92,10.0,SW,11.5,17.3,N/A,,Overcast,220,2013-01-06 07:54:00
3:15 AM,34.5,28.4,78,29.91,7.0,SSW,12.7,16.1,N/A,,Overcast,210,2013-01-06 08:15:00
3:35 AM,34.5,28.6,79,29.91,10.0,SW,12.7,16.1,N/A,,Overcast,220,2013-01-06 08:35:00
3:54 AM,34.7,28.8,79,29.91,10.0,SW,10.4,18.4,N/A,,Overcast,220,2013-01-06 08:54:00
4:15 AM,34.7,29.1,80,29.90,7.0,SW,11.5,19.6,N/A,,Overcast,220,2013-01-06 09:15:00
4:34 AM,34.3,29.3,82,29.89,7.0,SW,12.7,18.4,N/A,Snow,Light Snow,220,2013-01-06 09:34:00
4:55 AM,34.2,29.5,83,29.89,5.0,SW,10.4,16.1,N/A,Snow,Light Snow,220,2013-01-06 09:55:00
5:15 AM,34.0,29.7,84,29.88,7.0,SSW,9.2,-,N/A,,Overcast,210,2013-01-06 10:15:00
5:34 AM,34.2,29.8,84,29.88,5.0,SW,10.4,-,N/A,,Overcast,220,2013-01-06 10:34:00
5:55 AM,34.2,29.8,84,29.88,7.0,SW,9.2,-,N/A,,Overcast,220,2013-01-06 10:55:00
6:35 AM,34.7,29.8,82,29.87,7.0,SW,9.2,-,N/A,,Overcast,220,2013-01-06 11:35:00
6:55 AM,34.7,29.7,82,29.87,7.0,SSW,10.4,18.4,N/A,,Overcast,210,2013-01-06 11:55:00
7:14 AM,34.7,29.7,82,29.87,7.0,SSW,6.9,-,N/A,,Overcast,210,2013-01-06 12:14:00
7:35 AM,34.7,29.7,82,29.87,7.0,SW,9.2,-,N/A,,Overcast,220,2013-01-06 12:35:00
7:55 AM,34.7,29.7,82,29.87,7.0,SW,8.1,-,N/A,,Overcast,220,2013-01-06 12:55:00
8:14 AM,34.9,29.7,81,29.87,7.0,SSW,10.4,-,N/A,,Overcast,210,2013-01-06 13:14:00
8:35 AM,35.1,29.7,81,29.87,7.0,SW,8.1,-,N/A,,Overcast,220,2013-01-06 13:35:00
8:54 AM,35.1,29.7,81,29.87,7.0,SW,9.2,-,N/A,,Overcast,230,2013-01-06 13:54:00
9:35 AM,35.1,29.7,81,29.88,5.0,SW,6.9,-,N/A,,Haze,220,2013-01-06 14:35:00
9:54 AM,35.1,29.7,81,29.88,4.0,SW,6.9,-,N/A,,Haze,220,2013-01-06 14:54:00
10:14 AM,35.2,29.7,80,29.89,5.0,SW,9.2,-,N/A,,Haze,220,2013-01-06 15:14:00
10:35 AM,35.6,29.7,79,29.89,7.0,SW,9.2,-,N/A,,Overcast,220,2013-01-06 15:35:00
10:54 AM,35.6,29.5,78,29.89,7.0,SW,11.5,16.1,N/A,,Overcast,230,2013-01-06 15:54:00
11:14 AM,35.2,29.7,80,29.90,3.0,WSW,10.4,-,N/A,,Haze,240,2013-01-06 16:14:00
11:35 AM,34.9,30.2,83,29.89,4.0,SW,9.2,-,N/A,,Haze,230,2013-01-06 16:35:00
11:54 AM,35.2,30.2,82,29.89,5.0,WSW,11.5,-,N/A,,Haze,240,2013-01-06 16:54:00
12:34 PM,34.9,30.6,84,29.88,3.0,WSW,9.2,-,N/A,Snow,Light Snow,240,2013-01-06 17:34:00
12:54 PM,35.1,30.6,84,29.88,5.0,WSW,9.2,-,N/A,,Haze,250,2013-01-06 17:54:00
1:15 PM,35.1,30.0,82,29.89,4.0,WSW,13.8,17.3,N/A,Snow,Light Snow,250,2013-01-06 18:15:00
1:34 PM,34.9,30.2,83,29.89,5.0,West,10.4,16.1,N/A,Snow,Light Snow,260,2013-01-06 18:34:00
1:55 PM,34.9,30.2,83,29.90,4.0,NW,12.7,-,N/A,Rain,Light Rain,310,2013-01-06 18:55:00
2:15 PM,34.2,29.5,83,29.91,4.0,WNW,15.0,20.7,N/A,,Light Drizzle,300,2013-01-06 19:15:00
2:34 PM,33.8,28.8,82,29.92,3.0,WNW,15.0,-,N/A,,Light Drizzle,290,2013-01-06 19:34:00
2:55 PM,33.3,28.0,81,29.93,4.0,WNW,15.0,20.7,N/A,Rain,Light Rain,290,2013-01-06 19:55:00
3:14 PM,32.9,27.3,80,29.95,5.0,West,10.4,21.9,N/A,,Haze,270,2013-01-06 20:14:00
3:34 PM,32.9,27.3,80,29.96,5.0,West,9.2,-,N/A,,Haze,270,2013-01-06 20:34:00
3:55 PM,33.1,26.1,75,29.98,7.0,WNW,12.7,16.1,N/A,,Overcast,290,2013-01-06 20:55:00
4:14 PM,32.9,25.5,74,29.99,7.0,WNW,10.4,-,N/A,,Overcast,290,2013-01-06 21:14:00
4:34 PM,32.9,25.3,74,30.00,7.0,WNW,10.4,-,N/A,,Overcast,290,2013-01-06 21:34:00
4:55 PM,32.9,24.8,72,30.02,7.0,WNW,10.4,-,N/A,,Overcast,300,2013-01-06 21:55:00
5:14 PM,32.9,25.0,73,30.03,10.0,WNW,10.4,-,N/A,,Overcast,300,2013-01-06 22:14:00
5:34 PM,32.5,25.5,75,30.04,7.0,WNW,10.4,16.1,N/A,,Overcast,300,2013-01-06 22:34:00
5:55 PM,32.4,25.9,77,30.05,7.0,WNW,8.1,-,N/A,,Overcast,290,2013-01-06 22:55:00
6:14 PM,32.4,26.2,78,30.07,7.0,WNW,8.1,-,N/A,,Overcast,300,2013-01-06 23:14:00
6:35 PM,32.2,26.4,79,30.09,7.0,WNW,6.9,-,N/A,,Overcast,290,2013-01-06 23:35:00
6:55 PM,32.4,26.4,79,30.10,7.0,WNW,8.1,-,N/A,,Overcast,300,2013-01-06 23:55:00
7:14 PM,32.4,26.1,78,30.12,10.0,WNW,9.2,-,N/A,,Overcast,300,2013-01-07 00:14:00
7:35 PM,32.4,25.5,76,30.13,10.0,WNW,10.4,-,N/A,,Overcast,300,2013-01-07 00:35:00
7:55 PM,32.4,24.6,73,30.13,10.0,NW,13.8,-,N/A,,Overcast,310,2013-01-07 00:55:00
8:14 PM,32.4,23.9,71,30.14,10.0,NW,9.2,-,N/A,,Overcast,310,2013-01-07 01:14:00
8:35 PM,32.2,23.9,72,30.16,10.0,NW,10.4,-,N/A,,Overcast,310,2013-01-07 01:35:00
8:54 PM,32.2,23.9,72,30.17,10.0,WNW,11.5,-,N/A,,Overcast,300,2013-01-07 01:54:00
9:14 PM,32.2,23.7,71,30.18,10.0,NW,10.4,-,N/A,,Overcast,310,2013-01-07 02:14:00
9:35 PM,32.2,23.5,70,30.18,10.0,NW,8.1,-,N/A,,Overcast,310,2013-01-07 02:35:00
10:35 PM,32.0,23.7,71,30.21,10.0,WNW,5.8,-,N/A,,Overcast,300,2013-01-07 03:35:00
10:54 PM,32.0,23.9,72,30.21,10.0,WNW,5.8,-,N/A,,Overcast,300,2013-01-07 03:54:00
11:14 PM,32.0,24.3,73,30.23,10.0,WNW,8.1,-,N/A,,Overcast,300,2013-01-07 04:14:00
11:34 PM,32.0,24.3,73,30.24,10.0,NW,8.1,-,N/A,,Overcast,310,2013-01-07 04:34:00
11:54 PM,32.0,23.0,69,30.24,10.0,NW,8.1,-,N/A,,Overcast,310,2013-01-07 04:54:00